Time;durP1;ratioP1;P1;durP2;ratioP2;P2;SDS_P1;SDS_P2;PMS_P1;PMS_P2;Temp;Humidity;BMP_temperature;BMP_pressure;BME280_temperature;BME280_humidity;BME280_pressure;Samples;Min_cycle;Max_cycle;Signal;HPM_P1;HPM_P2
2024/01/21 00:00:44;;;;;;;5.82;2.72;;;;;;;3.00;49.94;102632.94;7389033;19;20100;-57
2024/01/21 00:03:15;;;;;;;7.25;3.60;;;;;;;2.95;50.36;102626.91;7391215;19;20019;-57
2024/01/21 00:05:45;;;;;;;8.75;2.88;;;;;;;3.08;50.55;102625.88;7389867;19;20018;-57
2024/01/21 00:08:16;;;;;;;6.38;3.20;;;;;;;3.12;50.50;102620.56;7391135;19;20025;-56
2024/01/21 00:10:46;;;;;;;7.20;3.05;;;;;;;2.95;50.82;102616.44;7388124;19;20023;-56
2024/01/21 00:13:17;;;;;;;10.30;3.10;;;;;;;2.91;50.88;102618.22;7391103;19;20015;-58
2024/01/21 00:15:47;;;;;;;5.15;2.60;;;;;;;2.97;51.09;102620.75;7395738;19;20015;-57
2024/01/21 00:18:18;;;;;;;6.97;3.03;;;;;;;2.95;51.22;102617.31;7398392;19;20010;-57
2024/01/21 00:20:49;;;;;;;6.30;2.85;;;;;;;2.88;51.43;102616.50;7395634;19;20507;-56
2024/01/21 00:23:19;;;;;;;6.88;3.17;;;;;;;2.89;51.16;102607.75;7397815;19;20073;-56
2024/01/21 00:25:50;;;;;;;5.93;2.65;;;;;;;2.98;51.33;102604.19;7395902;19;20349;-58
2024/01/21 00:28:21;;;;;;;8.25;3.22;;;;;;;2.95;51.01;102603.38;7395232;19;20026;-56
2024/01/21 00:30:51;;;;;;;6.47;2.70;;;;;;;2.99;50.93;102602.44;7395034;19;20014;-59
2024/01/21 00:33:22;;;;;;;6.20;2.75;;;;;;;2.97;51.13;102591.97;7396749;19;20022;-56
2024/01/21 00:35:53;;;;;;;7.75;3.10;;;;;;;2.95;50.95;102582.44;7396305;19;20022;-59
2024/01/21 00:38:24;;;;;;;6.97;2.90;;;;;;;2.96;50.56;102573.69;7398042;19;20014;-59
2024/01/21 00:40:54;;;;;;;7.20;3.17;;;;;;;2.93;50.12;102580.69;7395509;19;20494;-59
2024/01/21 00:43:25;;;;;;;5.32;2.90;;;;;;;2.77;50.59;102573.91;7396130;19;20022;-61
2024/01/21 00:45:56;;;;;;;7.50;2.88;;;;;;;2.85;50.62;102587.75;7397729;19;20043;-60
2024/01/21 00:48:26;;;;;;;5.50;2.83;;;;;;;2.81;50.69;102593.03;7396039;19;20018;-62
2024/01/21 00:50:57;;;;;;;6.28;2.97;;;;;;;2.80;50.22;102588.72;7393242;19;20393;-63
2024/01/21 00:53:31;;;;;;;6.95;2.90;;;;;;;2.67;50.42;102581.00;7397124;19;20399;-63
2024/01/21 00:56:01;;;;;;;8.65;3.13;;;;;;;2.79;50.14;102568.66;7396698;19;20106;-63
2024/01/21 00:58:37;;;;;;;5.35;2.78;;;;;;;2.84;50.27;102570.34;7395433;19;20018;-63
2024/01/21 01:01:07;;;;;;;5.93;3.00;;;;;;;2.85;50.15;102556.34;7394395;19;20495;-64
2024/01/21 01:03:41;;;;;;;7.30;3.15;;;;;;;2.90;50.10;102551.97;7396907;19;20014;-63
2024/01/21 01:06:14;;;;;;;7.40;3.20;;;;;;;2.82;49.57;102553.78;7395168;19;20018;-63
2024/01/21 01:08:45;;;;;;;7.38;3.20;;;;;;;2.88;49.84;102560.69;7396296;19;20495;-60
2024/01/21 01:11:15;;;;;;;7.15;3.10;;;;;;;2.88;49.76;102552.84;7392210;19;20014;-63
2024/01/21 01:13:46;;;;;;;7.25;3.10;;;;;;;2.79;49.59;102553.84;7396421;19;20458;-61
2024/01/21 01:16:16;;;;;;;7.10;2.83;;;;;;;2.87;49.79;102553.75;7395874;19;20098;-60
2024/01/21 01:18:47;;;;;;;7.20;3.10;;;;;;;2.81;49.44;102540.72;7394748;19;20022;-60
2024/01/21 01:21:17;;;;;;;6.72;2.92;;;;;;;2.85;49.12;102550.25;7393832;19;20014;-60
2024/01/21 01:23:48;;;;;;;6.93;3.08;;;;;;;2.79;49.36;102545.13;7396519;19;20047;-60
2024/01/21 01:26:18;;;;;;;6.53;3.17;;;;;;;2.76;49.12;102535.56;7393033;19;20026;-61
2024/01/21 01:28:50;;;;;;;7.70;2.80;;;;;;;2.74;49.19;102539.06;7396258;19;20019;-61
2024/01/21 01:31:21;;;;;;;5.75;2.75;;;;;;;2.74;48.79;102523.38;7393109;19;20434;-61
2024/01/21 01:33:52;;;;;;;5.15;2.60;;;;;;;2.77;48.98;102523.34;7394501;19;20018;-61
2024/01/21 01:36:23;;;;;;;6.22;2.70;;;;;;;2.73;48.68;102522.50;7391838;19;20029;-60
2024/01/21 01:38:54;;;;;;;6.72;2.95;;;;;;;2.75;48.53;102510.28;7393799;19;20070;-61
2024/01/21 01:41:24;;;;;;;5.97;2.65;;;;;;;2.85;48.36;102517.13;7392948;19;20389;-60
2024/01/21 01:43:55;;;;;;;6.40;2.60;;;;;;;2.84;47.88;102520.63;7396018;19;20022;-61
2024/01/21 01:46:26;;;;;;;5.88;2.97;;;;;;;2.84;47.96;102504.94;7395575;19;20479;-60
2024/01/21 01:48:57;;;;;;;5.78;2.53;;;;;;;2.86;48.17;102505.78;7393842;19;20031;-61
2024/01/21 01:51:33;;;;;;;6.32;2.90;;;;;;;2.98;47.74;102509.09;7392406;19;20503;-61
2024/01/21 01:54:04;;;;;;;5.85;2.60;;;;;;;3.05;47.67;102506.41;7395086;19;20035;-61
2024/01/21 01:56:39;;;;;;;7.28;2.70;;;;;;;2.91;47.36;102492.63;7394798;19;20043;-61
2024/01/21 01:59:12;;;;;;;6.43;2.75;;;;;;;2.89;47.92;102497.00;7394779;19;20015;-61
2024/01/21 02:01:42;;;;;;;5.70;2.53;;;;;;;2.91;47.58;102506.59;7392078;19;20015;-59
2024/01/21 02:04:13;;;;;;;6.03;2.70;;;;;;;2.94;47.25;102510.91;7395472;19;20038;-59
2024/01/21 02:06:44;;;;;;;4.40;2.25;;;;;;;3.00;47.29;102508.19;7395419;19;20019;-62
2024/01/21 02:09:15;;;;;;;6.05;2.55;;;;;;;3.05;46.77;102495.94;7395031;19;20018;-60
2024/01/21 02:11:46;;;;;;;4.88;2.40;;;;;;;3.08;46.77;102506.34;7391713;19;20022;-61
2024/01/21 02:14:17;;;;;;;6.05;2.58;;;;;;;3.12;46.48;102494.06;7394509;19;20625;-61
2024/01/21 02:16:47;;;;;;;7.18;2.40;;;;;;;3.11;47.08;102489.72;7394444;19;20019;-60
2024/01/21 02:19:26;;;;;;;4.75;2.28;;;;;;;3.13;46.24;102485.34;7394539;19;20037;-60
2024/01/21 02:21:57;;;;;;;5.55;2.30;;;;;;;3.04;46.38;102475.00;7394512;19;20069;-60
2024/01/21 02:24:30;;;;;;;4.63;2.30;;;;;;;2.96;45.97;102480.34;7394184;19;20479;-60
2024/01/21 02:27:01;;;;;;;5.55;2.40;;;;;;;2.89;46.00;102478.69;7392957;19;20089;-60
2024/01/21 02:29:38;;;;;;;6.53;2.60;;;;;;;2.69;45.71;102461.53;7394275;19;20015;-60
2024/01/21 02:32:08;;;;;;;5.93;2.47;;;;;;;2.69;46.57;102456.28;7393650;19;20026;-60
2024/01/21 02:34:39;;;;;;;5.30;2.50;;;;;;;2.74;46.26;102452.75;7393786;19;20056;-60
2024/01/21 02:37:09;;;;;;;6.93;2.85;;;;;;;2.80;46.04;102460.53;7393197;19;20039;-59
2024/01/21 02:39:39;;;;;;;6.55;2.75;;;;;;;2.75;46.19;102452.75;7391307;19;20019;-60
2024/01/21 02:42:10;;;;;;;6.93;2.88;;;;;;;2.68;45.73;102445.88;7393556;19;20021;-60
2024/01/21 02:44:41;;;;;;;8.63;3.22;;;;;;;2.71;45.75;102440.59;7393590;19;20432;-60
2024/01/21 02:47:11;;;;;;;7.70;2.88;;;;;;;2.74;45.91;102435.31;7393986;19;20642;-60
2024/01/21 02:49:41;;;;;;;6.75;3.15;;;;;;;2.78;44.93;102425.66;7391335;19;20039;-60
2024/01/21 02:52:12;;;;;;;7.63;3.20;;;;;;;2.87;45.63;102433.41;7393164;19;20043;-59
2024/01/21 02:54:42;;;;;;;7.03;3.30;;;;;;;2.96;45.74;102433.25;7391780;19;20014;-60
2024/01/21 02:57:13;;;;;;;7.32;3.00;;;;;;;2.93;45.76;102421.06;7392688;19;20531;-60
2024/01/21 02:59:43;;;;;;;6.72;2.90;;;;;;;2.75;45.35;102423.97;7392639;19;20074;-60
2024/01/21 03:02:13;;;;;;;7.65;3.20;;;;;;;2.85;45.39;102422.06;7392355;19;20014;-60
2024/01/21 03:04:44;;;;;;;8.05;3.20;;;;;;;2.87;45.03;102412.47;7393512;19;20014;-60
2024/01/21 03:07:15;;;;;;;7.95;3.50;;;;;;;2.85;44.83;102411.59;7392888;19;20119;-60
2024/01/21 03:09:45;;;;;;;7.45;3.40;;;;;;;2.94;45.36;102401.03;7392184;19;20029;-60
2024/01/21 03:12:17;;;;;;;8.27;3.60;;;;;;;3.03;45.03;102397.41;7392621;19;20021;-60
2024/01/21 03:14:47;;;;;;;7.85;3.30;;;;;;;2.95;44.27;102396.66;7392741;19;20018;-60
2024/01/21 03:17:17;;;;;;;7.85;3.80;;;;;;;2.99;44.19;102388.72;7391005;19;20082;-60
2024/01/21 03:19:47;;;;;;;8.48;3.70;;;;;;;2.85;44.26;102390.69;7392477;19;20026;-60
2024/01/21 03:22:18;;;;;;;7.63;3.50;;;;;;;2.85;44.66;102380.22;7391012;19;20096;-60
2024/01/21 03:24:48;;;;;;;9.00;3.90;;;;;;;3.09;44.81;102382.47;7390991;19;20882;-59
2024/01/21 03:27:19;;;;;;;8.02;3.78;;;;;;;2.93;43.58;102373.09;7392473;19;20336;-59
2024/01/21 03:29:50;;;;;;;7.97;3.80;;;;;;;2.87;43.82;102362.75;7392062;19;20015;-60
2024/01/21 03:32:21;;;;;;;7.53;3.53;;;;;;;2.93;43.79;102355.66;7392097;19;20014;-60
2024/01/21 03:34:51;;;;;;;9.55;3.80;;;;;;;2.97;43.74;102348.63;7392302;19;20051;-61
2024/01/21 03:37:22;;;;;;;8.88;3.67;;;;;;;3.02;44.19;102345.97;7391916;19;20043;-61
2024/01/21 03:39:52;;;;;;;7.85;3.45;;;;;;;3.16;43.98;102342.19;7391041;19;20090;-62
2024/01/21 03:42:22;;;;;;;9.15;3.75;;;;;;;3.13;43.67;102336.19;7390482;19;20479;-62
2024/01/21 03:44:53;;;;;;;8.63;3.78;;;;;;;3.09;43.90;102322.28;7391980;19;20014;-62
2024/01/21 03:47:23;;;;;;;9.90;3.90;;;;;;;3.09;43.61;102330.13;7391734;19;20043;-63
2024/01/21 03:49:53;;;;;;;10.38;4.15;;;;;;;3.22;44.00;102320.28;7392717;19;20058;-63
2024/01/21 03:52:24;;;;;;;8.73;3.90;;;;;;;3.14;44.12;102307.34;7399609;19;20018;-63
2024/01/21 03:54:55;;;;;;;8.75;4.10;;;;;;;3.16;44.84;102297.69;7399659;19;20023;-62
2024/01/21 03:57:25;;;;;;;10.50;4.50;;;;;;;3.00;44.78;102304.09;7398656;19;20010;-61
2024/01/21 03:59:55;;;;;;;9.38;4.00;;;;;;;2.98;44.93;102305.00;7398127;19;20023;-61
2024/01/21 04:02:26;;;;;;;8.50;3.80;;;;;;;2.92;44.92;102303.38;7399388;19;20049;-61
2024/01/21 04:04:57;;;;;;;8.40;4.25;;;;;;;2.99;44.92;102302.38;7398743;19;20014;-61
2024/01/21 04:07:31;;;;;;;9.38;4.00;;;;;;;2.85;45.28;102286.91;7399090;19;20022;-61
2024/01/21 04:10:03;;;;;;;9.07;4.30;;;;;;;2.96;45.19;102284.09;7397098;19;20026;-61
2024/01/21 04:12:41;;;;;;;9.80;3.80;;;;;;;3.05;45.19;102283.06;7398946;19;20043;-61
2024/01/21 04:15:11;;;;;;;10.15;4.45;;;;;;;2.93;45.33;102285.00;7398464;19;20356;-61
2024/01/21 04:17:43;;;;;;;9.63;4.28;;;;;;;2.90;45.64;102284.19;7397852;19;20019;-61
2024/01/21 04:20:14;;;;;;;9.40;4.47;;;;;;;2.99;45.18;102278.81;7396902;19;20409;-61
2024/01/21 04:22:44;;;;;;;10.55;4.50;;;;;;;3.04;45.33;102279.59;7398651;19;20018;-60
2024/01/21 04:25:15;;;;;;;10.73;4.57;;;;;;;3.02;45.38;102277.91;7398370;19;20047;-60
2024/01/21 04:27:44;;;;;;;9.38;4.82;;;;;;;2.88;45.68;102268.53;7398657;19;20348;-60
2024/01/21 04:30:15;;;;;;;10.32;4.63;;;;;;;2.88;45.96;102255.47;7396733;19;20014;-59
2024/01/21 04:32:45;;;;;;;9.68;4.55;;;;;;;2.84;45.25;102259.03;7397961;19;20031;-60
2024/01/21 04:35:15;;;;;;;9.88;4.93;;;;;;;2.75;45.83;102255.69;7396516;19;20429;-60
2024/01/21 04:37:44;;;;;;;10.02;4.75;;;;;;;2.72;45.46;102247.91;7396987;19;20011;-60
2024/01/21 04:40:15;;;;;;;10.20;4.85;;;;;;;2.81;45.63;102237.28;7396399;19;20014;-60
2024/01/21 04:42:45;;;;;;;10.18;4.80;;;;;;;2.77;45.67;102238.22;7397854;19;20638;-60
2024/01/21 04:45:17;;;;;;;9.60;4.50;;;;;;;2.84;46.21;102238.09;7397359;19;20053;-60
2024/01/21 04:47:47;;;;;;;10.27;4.72;;;;;;;2.88;45.98;102236.28;7397318;19;20073;-60
2024/01/21 04:50:18;;;;;;;10.25;4.45;;;;;;;2.89;45.88;102232.78;7395425;19;20420;-60
2024/01/21 04:52:47;;;;;;;9.25;4.55;;;;;;;2.90;45.74;102229.25;7397236;19;20332;-60
2024/01/21 04:55:17;;;;;;;9.95;5.00;;;;;;;2.90;45.92;102221.41;7397034;19;20014;-60
2024/01/21 04:57:46;;;;;;;10.80;4.32;;;;;;;2.92;46.15;102217.03;7395065;19;20042;-59
2024/01/21 05:00:17;;;;;;;10.55;4.63;;;;;;;2.98;46.00;102218.66;7394320;19;20034;-59
2024/01/21 05:02:45;;;;;;;9.57;4.45;;;;;;;3.01;45.78;102213.38;7394418;19;20018;-60
2024/01/21 05:05:16;;;;;;;11.65;4.70;;;;;;;3.03;45.95;102207.22;7397368;19;20011;-60
2024/01/21 05:07:44;;;;;;;10.43;4.90;;;;;;;2.98;46.17;102197.72;7397204;19;20018;-60
2024/01/21 05:10:15;;;;;;;9.05;4.38;;;;;;;2.95;45.15;102198.66;7395187;19;20029;-58
2024/01/21 05:12:45;;;;;;;9.70;4.35;;;;;;;2.88;46.21;102190.06;7396790;19;20019;-59
2024/01/21 05:15:15;;;;;;;8.45;4.13;;;;;;;2.84;45.44;102177.06;7396718;19;20021;-60
2024/01/21 05:17:45;;;;;;;8.68;4.00;;;;;;;2.90;46.11;102175.22;7396035;19;20015;-59
2024/01/21 05:20:15;;;;;;;9.23;4.20;;;;;;;2.92;45.43;102160.31;7394997;19;20023;-59
2024/01/21 05:22:44;;;;;;;8.68;4.15;;;;;;;2.84;45.40;102166.59;7394728;19;20026;-58
2024/01/21 05:25:13;;;;;;;9.27;3.90;;;;;;;2.86;45.35;102162.19;7396020;19;20043;-59
2024/01/21 05:27:46;;;;;;;9.30;4.32;;;;;;;2.88;45.65;102153.44;7394727;19;20029;-59
2024/01/21 05:30:16;;;;;;;9.23;3.80;;;;;;;2.82;45.44;102143.06;7394244;19;20370;-59
2024/01/21 05:32:46;;;;;;;9.20;3.85;;;;;;;2.98;45.43;102140.16;7396383;19;20025;-59
2024/01/21 05:35:20;;;;;;;10.90;4.18;;;;;;;2.84;45.43;102136.06;7396115;19;20361;-59
2024/01/21 05:37:49;;;;;;;7.63;3.85;;;;;;;2.96;45.17;102126.25;7395702;19;20111;-59
2024/01/21 05:40:19;;;;;;;7.95;3.47;;;;;;;3.00;44.98;102120.06;7394227;19;20022;-59
2024/01/21 05:42:48;;;;;;;11.45;4.75;;;;;;;3.04;44.92;102122.59;7396175;19;20043;-59
2024/01/21 05:45:19;;;;;;;9.82;3.47;;;;;;;2.96;45.09;102121.03;7395626;19;20022;-59
2024/01/21 05:47:48;;;;;;;7.72;3.47;;;;;;;3.01;44.88;102112.19;7395358;19;20018;-59
2024/01/21 05:50:18;;;;;;;9.60;3.97;;;;;;;3.05;44.94;102115.59;7394159;19;20022;-59
2024/01/21 05:52:48;;;;;;;9.85;4.20;;;;;;;2.90;45.10;102104.56;7395004;19;20043;-59
2024/01/21 05:55:18;;;;;;;8.73;3.72;;;;;;;2.86;44.76;102107.25;7393563;19;20025;-58
2024/01/21 05:57:55;;;;;;;8.18;3.72;;;;;;;2.99;44.70;102111.38;7394622;19;20019;-58
2024/01/21 06:00:25;;;;;;;9.07;4.10;;;;;;;2.92;44.18;102109.75;7393662;19;20351;-57
2024/01/21 06:02:56;;;;;;;9.65;3.70;;;;;;;3.00;44.42;102097.38;7395131;19;20023;-59
2024/01/21 06:05:26;;;;;;;9.23;4.00;;;;;;;3.03;44.40;102075.53;7394754;19;20397;-59
2024/01/21 06:07:57;;;;;;;8.73;4.13;;;;;;;3.14;44.26;102082.25;7395244;19;20014;-58
2024/01/21 06:10:27;;;;;;;9.98;4.30;;;;;;;3.15;43.95;102080.50;7393413;19;20082;-60
2024/01/21 06:12:57;;;;;;;8.45;4.07;;;;;;;3.10;43.74;102071.91;7392635;19;20096;-62
2024/01/21 06:15:32;;;;;;;9.75;4.50;;;;;;;3.12;43.95;102068.34;7395175;19;20041;-61
2024/01/21 06:18:03;;;;;;;10.00;4.00;;;;;;;3.12;43.83;102057.00;7392594;19;20022;-62
2024/01/21 06:20:37;;;;;;;8.88;4.10;;;;;;;3.17;43.74;102058.66;7393163;19;20064;-62
2024/01/21 06:23:08;;;;;;;7.95;3.67;;;;;;;3.20;43.52;102046.38;7394721;19;20022;-60
2024/01/21 06:25:39;;;;;;;9.07;4.07;;;;;;;3.17;43.51;102044.72;7392966;19;20081;-61
2024/01/21 06:28:09;;;;;;;9.43;3.97;;;;;;;3.07;43.12;102045.78;7393899;19;20029;-61
2024/01/21 06:30:39;;;;;;;8.27;4.38;;;;;;;3.04;43.57;102035.38;7392217;19;20018;-61
2024/01/21 06:33:10;;;;;;;9.18;4.30;;;;;;;3.07;42.80;102023.09;7392364;19;20394;-61
2024/01/21 06:35:40;;;;;;;9.38;4.20;;;;;;;3.11;43.22;102021.28;7394263;19;20038;-62
2024/01/21 06:38:11;;;;;;;10.43;4.10;;;;;;;3.21;43.01;102009.72;7393335;19;20043;-61
2024/01/21 06:40:42;;;;;;;9.38;3.75;;;;;;;3.23;43.27;102009.66;7391632;19;20096;-61
2024/01/21 06:43:13;;;;;;;8.30;3.75;;;;;;;3.27;43.04;102001.69;7393371;19;20017;-59
2024/01/21 06:45:43;;;;;;;8.50;3.70;;;;;;;3.32;42.50;101999.84;7393470;19;20375;-59
2024/01/21 06:48:15;;;;;;;7.82;4.00;;;;;;;3.32;41.88;102001.59;7393651;19;20007;-59
2024/01/21 06:50:50;;;;;;;9.38;3.80;;;;;;;3.31;42.39;101997.25;7390038;19;20014;-59
2024/01/21 06:53:20;;;;;;;8.70;4.07;;;;;;;3.22;42.21;101992.25;7393195;19;20022;-61
2024/01/21 06:55:51;;;;;;;8.82;3.92;;;;;;;3.37;42.43;101994.50;7391680;19;20026;-61
2024/01/21 06:58:21;;;;;;;9.02;3.88;;;;;;;3.28;41.77;101984.22;7392883;19;20360;-60
2024/01/21 07:00:51;;;;;;;9.55;3.90;;;;;;;3.20;42.16;101978.31;7391246;19;20122;-60
2024/01/21 07:03:22;;;;;;;8.48;4.10;;;;;;;3.24;41.71;101978.22;7393084;19;20022;-60
2024/01/21 07:05:53;;;;;;;7.63;3.63;;;;;;;3.18;41.17;101973.13;7392692;19;20025;-59
2024/01/21 07:08:23;;;;;;;7.47;3.78;;;;;;;3.27;41.85;101979.91;7391609;19;20018;-63
2024/01/21 07:10:54;;;;;;;8.85;4.20;;;;;;;3.28;41.25;101977.28;7391555;19;20375;-63
2024/01/21 07:13:25;;;;;;;9.50;3.85;;;;;;;3.28;40.56;101977.28;7393674;19;20329;-64
2024/01/21 07:15:55;;;;;;;8.05;4.00;;;;;;;3.38;41.29;101976.13;7393029;19;20051;-60
2024/01/21 07:18:25;;;;;;;6.43;3.40;;;;;;;3.28;41.16;101979.88;7390573;19;20049;-61
2024/01/21 07:20:56;;;;;;;8.30;3.58;;;;;;;3.24;41.31;101978.22;7390847;19;20018;-61
2024/01/21 07:23:27;;;;;;;8.80;3.50;;;;;;;3.33;41.37;101970.16;7392510;19;20014;-61
2024/01/21 07:25:58;;;;;;;7.35;3.25;;;;;;;3.45;41.26;101965.53;7390420;19;20026;-61
2024/01/21 07:28:33;;;;;;;8.57;3.53;;;;;;;3.24;40.89;101954.66;7392212;19;20336;-61
2024/01/21 07:31:03;;;;;;;8.38;3.60;;;;;;;3.25;40.83;101947.69;7388816;19;20046;-60
2024/01/21 07:33:37;;;;;;;;;;;;;;;3.22;40.44;101946.00;7393087;19;20033;-61
2024/01/21 07:36:08;;;;;;;7.47;3.45;;;;;;;3.27;41.02;101938.88;7390826;19;19929;-60
2024/01/21 07:38:38;;;;;;;7.18;2.97;;;;;;;3.24;40.12;101925.84;7391605;19;20026;-59
2024/01/21 07:41:14;;;;;;;6.07;2.95;;;;;;;3.29;40.62;101924.00;7389967;19;20389;-59
2024/01/21 07:43:45;;;;;;;7.82;3.30;;;;;;;3.40;39.74;101908.91;7392656;19;20380;-60
2024/01/21 07:46:15;;;;;;;7.10;3.35;;;;;;;3.45;40.29;101903.53;7392041;19;20373;-62
2024/01/21 07:48:45;;;;;;;8.93;3.42;;;;;;;3.39;40.05;101912.38;7392048;19;20060;-62
2024/01/21 07:51:18;;;;;;;6.68;3.40;;;;;;;3.51;39.62;101884.19;7390671;19;20027;-62
2024/01/21 07:53:48;;;;;;;7.05;3.08;;;;;;;3.45;40.22;101877.34;7392029;19;20035;-62
2024/01/21 07:56:19;;;;;;;6.90;2.95;;;;;;;3.53;39.77;101882.38;7392368;19;20018;-62
2024/01/21 07:58:49;;;;;;;8.27;3.25;;;;;;;3.54;39.55;101934.72;7391377;19;20373;-62
2024/01/21 08:01:21;;;;;;;6.00;2.70;;;;;;;3.66;40.00;101926.56;7389473;19;20019;-60
2024/01/21 08:03:52;;;;;;;6.65;2.97;;;;;;;3.75;39.46;101921.97;7391869;19;20022;-62
2024/01/21 08:06:22;;;;;;;6.45;3.10;;;;;;;3.80;39.50;101914.84;7391873;19;20014;-62
2024/01/21 08:08:52;;;;;;;9.13;2.90;;;;;;;3.74;39.50;101921.13;7392528;19;20667;-61
2024/01/21 08:11:23;;;;;;;6.35;2.90;;;;;;;3.76;39.77;101914.06;7388782;19;20047;-62
2024/01/21 08:13:53;;;;;;;8.40;3.10;;;;;;;3.72;39.55;101922.06;7391575;19;20026;-63
2024/01/21 08:16:24;;;;;;;6.72;2.70;;;;;;;3.92;39.93;101936.31;7390834;19;20045;-61
2024/01/21 08:18:54;;;;;;;7.32;3.00;;;;;;;3.95;38.95;101918.81;7389066;19;20022;-57
2024/01/21 08:21:25;;;;;;;6.47;2.97;;;;;;;3.86;39.38;101938.28;7388874;19;20021;-59
2024/01/21 08:23:55;;;;;;;6.38;2.75;;;;;;;3.82;39.31;101934.03;7391091;19;20627;-62
2024/01/21 08:26:25;;;;;;;4.93;2.42;;;;;;;3.88;39.31;101921.59;7389318;19;20028;-61
2024/01/21 08:28:56;;;;;;;5.25;2.55;;;;;;;4.00;39.56;101937.88;7390838;19;20025;-58
2024/01/21 08:31:27;;;;;;;6.55;2.65;;;;;;;3.85;39.63;101926.06;7389226;19;20015;-58
2024/01/21 08:33:57;;;;;;;5.63;2.35;;;;;;;3.98;39.21;101908.25;7390345;19;20014;-59
2024/01/21 08:36:30;;;;;;;5.13;2.45;;;;;;;3.91;39.42;101899.69;7394959;19;20029;-60
2024/01/21 08:39:00;;;;;;;6.47;2.60;;;;;;;3.95;39.50;101888.22;7397135;19;20029;-60
2024/01/21 08:41:36;;;;;;;5.90;2.80;;;;;;;3.89;39.16;101860.44;7394082;19;20022;-59
2024/01/21 08:44:07;;;;;;;4.72;2.50;;;;;;;3.90;39.46;101854.28;7397628;19;20014;-62
2024/01/21 08:46:38;;;;;;;6.03;2.72;;;;;;;3.87;39.20;101874.47;7398103;19;20031;-61
2024/01/21 08:49:08;;;;;;;7.95;2.80;;;;;;;3.92;39.67;101862.09;7397915;19;20034;-61
2024/01/21 08:51:41;;;;;;;5.82;2.60;;;;;;;3.90;39.57;101866.53;7394871;19;20359;-61
2024/01/21 08:54:12;;;;;;;6.38;2.50;;;;;;;3.94;39.16;101872.56;7397211;19;20094;-60
2024/01/21 08:56:42;;;;;;;6.00;2.50;;;;;;;4.06;39.67;101856.47;7396102;19;20031;-61
2024/01/21 08:59:13;;;;;;;6.18;2.78;;;;;;;4.11;39.45;101884.25;7396951;19;20033;-61
2024/01/21 09:01:43;;;;;;;7.40;2.90;;;;;;;4.21;39.76;101884.03;7392859;19;20022;-59
2024/01/21 09:04:15;;;;;;;9.60;2.60;;;;;;;4.22;39.20;101906.69;7398054;19;20023;-57
2024/01/21 09:06:46;;;;;;;6.78;2.70;;;;;;;4.14;39.21;101885.94;7396552;19;20074;-58
2024/01/21 09:09:17;;;;;;;6.10;3.00;;;;;;;4.23;39.45;101892.69;7396727;19;20043;-59
2024/01/21 09:11:47;;;;;;;6.25;2.55;;;;;;;4.26;39.89;101922.28;7393604;19;20022;-57
2024/01/21 09:14:18;;;;;;;6.13;2.45;;;;;;;4.23;39.67;101908.41;7396504;19;20022;-60
2024/01/21 09:16:48;;;;;;;5.50;2.38;;;;;;;4.41;39.63;101897.38;7396531;19;20018;-58
2024/01/21 09:19:18;;;;;;;6.25;2.75;;;;;;;4.51;39.54;101924.22;7396015;19;20090;-58
2024/01/21 09:21:49;;;;;;;8.70;2.90;;;;;;;4.60;39.78;101918.69;7393638;19;20010;-59
2024/01/21 09:24:21;;;;;;;4.47;2.25;;;;;;;4.54;39.50;101897.88;7396351;19;20373;-58
2024/01/21 09:26:51;;;;;;;10.75;3.42;;;;;;;4.51;39.38;101905.88;7396368;19;20351;-59
2024/01/21 09:29:21;;;;;;;6.07;2.58;;;;;;;4.49;39.32;101926.00;7392705;19;20066;-58
2024/01/21 09:31:54;;;;;;;5.85;2.47;;;;;;;4.58;38.78;101912.66;7395673;19;20015;-58
2024/01/21 09:34:25;;;;;;;4.32;1.98;;;;;;;4.59;38.87;101923.06;7396603;19;20018;-59
2024/01/21 09:36:56;;;;;;;5.10;2.38;;;;;;;4.61;38.96;101930.88;7395613;19;20047;-58
2024/01/21 09:39:26;;;;;;;5.50;2.20;;;;;;;4.72;38.48;101920.06;7395199;19;20086;-58
2024/01/21 09:41:57;;;;;;;6.07;2.80;;;;;;;4.73;39.06;101920.06;7395370;19;20378;-58
2024/01/21 09:44:29;;;;;;;6.55;2.33;;;;;;;4.76;38.99;101932.19;7395696;19;20023;-58
2024/01/21 09:47:01;;;;;;;5.78;2.65;;;;;;;4.79;38.98;101921.63;7394721;19;20039;-57
2024/01/21 09:49:40;;;;;;;8.02;2.67;;;;;;;4.97;38.70;101912.31;7395237;19;20042;-58
2024/01/21 09:52:12;;;;;;;6.25;2.45;;;;;;;4.91;38.58;101888.88;7393317;19;20498;-58
2024/01/21 09:54:43;;;;;;;5.60;2.20;;;;;;;4.93;38.79;101892.31;7395476;19;20014;-58
2024/01/21 09:57:14;;;;;;;6.72;2.58;;;;;;;5.00;39.13;101893.81;7394838;19;20037;-58
2024/01/21 09:59:46;;;;;;;6.57;2.63;;;;;;;5.00;39.07;101892.09;7393873;19;20030;-57
2024/01/21 10:02:16;;;;;;;5.40;2.22;;;;;;;5.00;39.05;101901.69;7394548;19;20019;-57
2024/01/21 10:04:47;;;;;;;6.53;2.85;;;;;;;4.86;39.27;101887.25;7395206;19;20017;-58
2024/01/21 10:07:18;;;;;;;5.45;2.40;;;;;;;4.82;39.10;101887.41;7395414;19;20019;-58
2024/01/21 10:09:55;;;;;;;6.25;2.50;;;;;;;4.84;39.41;101891.69;7394392;19;20577;-53
2024/01/21 10:12:25;;;;;;;6.80;2.80;;;;;;;5.05;39.22;101874.41;7395002;19;20015;-57
2024/01/21 10:14:56;;;;;;;6.80;2.20;;;;;;;5.21;39.14;101877.38;7394260;19;20018;-58
2024/01/21 10:17:32;;;;;;;6.75;2.67;;;;;;;5.17;38.89;101885.41;7393240;19;20035;-57
2024/01/21 10:20:03;;;;;;;4.97;2.22;;;;;;;5.30;39.15;101894.59;7392732;19;20029;-58
2024/01/21 10:22:41;;;;;;;6.32;2.58;;;;;;;5.29;39.48;101891.09;7394474;19;20025;-58
2024/01/21 10:25:13;;;;;;;6.50;2.70;;;;;;;5.26;39.52;101880.69;7394101;19;20023;-56
2024/01/21 10:27:50;;;;;;;5.78;2.55;;;;;;;5.35;38.72;101893.53;7367544;19;20415;-57
2024/01/21 10:30:21;;;;;;;8.77;2.75;;;;;;;5.53;38.95;101889.44;7392369;19;20386;-58
2024/01/21 10:32:52;;;;;;;6.60;2.72;;;;;;;5.50;38.98;101883.44;7393901;19;20146;-58
2024/01/21 10:35:24;;;;;;;6.18;2.45;;;;;;;5.52;39.70;101868.47;7393711;19;20368;-57
2024/01/21 10:37:57;;;;;;;8.07;2.63;;;;;;;5.40;39.49;101874.13;7393489;19;20019;-58
2024/01/21 10:40:29;;;;;;;6.35;2.50;;;;;;;5.42;40.66;101854.81;7391730;19;20029;-57
2024/01/21 10:43:02;;;;;;;6.32;2.60;;;;;;;5.47;40.78;101878.28;7392270;19;20023;-58
2024/01/21 10:45:38;;;;;;;6.90;3.10;;;;;;;5.46;41.19;101871.31;7392228;19;20048;-58
2024/01/21 10:48:10;;;;;;;7.05;2.83;;;;;;;5.38;41.58;101872.44;7393088;19;20015;-58
2024/01/21 10:50:42;;;;;;;5.93;2.92;;;;;;;5.45;41.81;101878.31;7391514;19;20026;-57
2024/01/21 10:53:13;;;;;;;5.78;3.00;;;;;;;5.57;41.33;101898.94;7393673;19;20026;-57
2024/01/21 10:55:45;;;;;;;6.53;2.90;;;;;;;5.63;40.75;101864.53;7393551;19;20015;-58
2024/01/21 10:58:16;;;;;;;5.25;2.72;;;;;;;5.81;40.55;101867.44;7392029;19;20078;-57
2024/01/21 11:00:50;;;;;;;6.88;2.88;;;;;;;5.74;40.94;101892.22;7388846;19;20022;-58
2024/01/21 11:03:27;;;;;;;8.40;3.17;;;;;;;5.66;41.22;101887.22;7393405;19;20039;-57
2024/01/21 11:06:00;;;;;;;7.63;3.08;;;;;;;5.56;41.44;101870.06;7392597;19;20014;-58
2024/01/21 11:08:44;;;;;;;9.23;3.45;;;;;;;5.71;41.30;101887.06;7392636;19;20027;-58
2024/01/21 11:11:16;;;;;;;7.35;2.97;;;;;;;5.67;41.65;101888.94;7390577;19;20018;-57
2024/01/21 11:13:49;;;;;;;7.90;3.00;;;;;;;5.73;41.73;101896.63;7391104;19;20371;-57
2024/01/21 11:16:26;;;;;;;9.63;3.72;;;;;;;5.65;42.57;101896.03;7393091;19;20024;-56
2024/01/21 11:18:57;;;;;;;8.30;3.67;;;;;;;5.61;43.11;101890.03;7392484;19;20032;-57
2024/01/21 11:21:40;;;;;;;8.70;3.90;;;;;;;5.61;43.30;101894.44;7389955;19;20046;-57
2024/01/21 11:24:13;;;;;;;7.25;3.40;;;;;;;5.67;43.29;101895.97;7392541;19;20023;-58
2024/01/21 11:26:47;;;;;;;9.05;3.40;;;;;;;5.63;44.11;101880.31;7392719;19;20415;-56
2024/01/21 11:29:31;;;;;;;10.65;4.18;;;;;;;5.65;44.11;101887.28;7392278;19;20036;-57
2024/01/21 11:32:02;;;;;;;;;;;;;;;5.48;44.15;101883.47;7392696;19;20018;-57
2024/01/21 11:34:43;;;;;;;8.57;3.78;;;;;;;5.62;44.31;101878.59;7391584;19;19929;-58
2024/01/21 11:37:14;;;;;;;9.07;3.83;;;;;;;5.70;44.19;101869.59;7391914;19;20050;-57
2024/01/21 11:39:45;;;;;;;7.80;3.40;;;;;;;5.67;44.64;101870.56;7391379;19;20059;-57
2024/01/21 11:42:16;;;;;;;7.85;3.53;;;;;;;5.73;44.63;101858.97;7391840;19;20049;-58
2024/01/21 11:44:46;;;;;;;9.95;3.63;;;;;;;5.76;44.59;101857.09;7391923;19;20019;-58
2024/01/21 11:47:17;;;;;;;8.70;3.95;;;;;;;5.85;44.60;101866.41;7391376;19;20348;-56
2024/01/21 11:49:47;;;;;;;9.70;4.47;;;;;;;5.74;44.79;101858.91;7390431;19;20019;-57
2024/01/21 11:52:20;;;;;;;10.63;4.63;;;;;;;5.75;45.11;101854.50;7391373;19;20381;-58